createdAt,value
2018-11-26T00:00:35.811Z,6.17
2018-11-26T00:01:10.505Z,6.17
2018-11-26T00:01:45.158Z,6.25
2018-11-26T00:02:19.794Z,6.22
2018-11-26T00:02:54.797Z,6.25
2018-11-26T00:03:29.501Z,6.20
2018-11-26T00:04:04.132Z,6.16
2018-11-26T00:04:38.790Z,6.18
2018-11-26T00:05:13.866Z,6.14
2018-11-26T00:05:48.531Z,6.18
2018-11-26T00:06:23.357Z,6.17
2018-11-26T00:06:58.089Z,6.21
2018-11-26T00:07:32.695Z,6.19
2018-11-26T00:08:09.236Z,6.25
2018-11-26T00:08:43.911Z,6.21
2018-11-26T00:09:18.960Z,6.26
2018-11-26T00:09:58.011Z,6.27
2018-11-26T00:10:44.024Z,6.30
2018-11-26T00:11:33.568Z,6.32
2018-11-26T00:12:08.272Z,6.27
2018-11-26T00:12:43.030Z,6.26
2018-11-26T00:13:17.608Z,6.24
2018-11-26T00:13:52.235Z,6.23
2018-11-26T00:14:26.928Z,6.22
2018-11-26T00:15:01.630Z,6.26
2018-11-26T00:15:36.600Z,6.25
2018-11-26T00:16:11.232Z,6.24
2018-11-26T00:16:45.985Z,6.22
2018-11-26T00:17:20.585Z,6.24
2018-11-26T00:17:55.349Z,6.22
2018-11-26T00:18:29.963Z,6.21
2018-11-26T00:19:04.916Z,6.18
2018-11-26T00:19:39.661Z,6.28
2018-11-26T00:20:14.354Z,6.27
2018-11-26T00:20:49.043Z,6.26
2018-11-26T00:21:23.751Z,6.28
2018-11-26T00:21:58.466Z,6.29
2018-11-26T00:22:33.180Z,6.26
2018-11-26T00:23:08.023Z,6.34
2018-11-26T00:23:42.625Z,6.04
2018-11-26T00:24:17.218Z,6.29
2018-11-26T00:24:51.913Z,6.31
2018-11-26T00:25:26.634Z,6.36
2018-11-26T00:26:01.918Z,6.35
2018-11-26T00:26:36.593Z,6.32
2018-11-26T00:27:11.236Z,6.31
2018-11-26T00:27:46.399Z,6.31
2018-11-26T00:28:21.176Z,6.32
2018-11-26T00:28:55.802Z,6.32
2018-11-26T00:29:30.808Z,6.32
2018-11-26T00:30:06.758Z,6.34
2018-11-26T00:30:41.516Z,6.45
2018-11-26T00:31:16.372Z,6.42
2018-11-26T00:31:51.080Z,6.38
2018-11-26T00:32:25.695Z,6.39
2018-11-26T00:33:00.313Z,6.39
2018-11-26T00:33:34.952Z,6.44
2018-11-26T00:34:09.595Z,6.49
2018-11-26T00:34:44.259Z,6.42
2018-11-26T00:35:18.869Z,6.43
2018-11-26T00:35:53.541Z,6.37
2018-11-26T00:36:28.269Z,6.37
2018-11-26T00:37:02.984Z,6.33
2018-11-26T00:37:37.895Z,6.34
2018-11-26T00:38:12.603Z,6.32
2018-11-26T00:38:47.264Z,6.37
2018-11-26T00:39:21.873Z,6.44
2018-11-26T00:39:56.885Z,6.42
2018-11-26T00:40:31.514Z,6.42
2018-11-26T00:41:06.706Z,6.41
2018-11-26T00:41:41.335Z,6.41
2018-11-26T00:42:15.964Z,6.47
2018-11-26T00:42:50.892Z,6.52
2018-11-26T00:43:25.515Z,6.52
2018-11-26T00:44:00.231Z,6.45
2018-11-26T00:44:34.902Z,6.46
2018-11-26T00:45:11.527Z,6.45
2018-11-26T00:45:46.202Z,6.41
2018-11-26T00:46:20.883Z,6.38
2018-11-26T00:46:55.839Z,6.36
2018-11-26T00:47:30.577Z,6.34
2018-11-26T00:48:05.589Z,6.33
2018-11-26T00:48:40.556Z,6.36
2018-11-26T00:49:15.239Z,6.35
2018-11-26T00:49:50.108Z,6.32
2018-11-26T00:50:24.735Z,6.28
2018-11-26T00:50:59.386Z,6.26
2018-11-26T00:51:34.655Z,6.26
2018-11-26T00:52:09.356Z,6.23
2018-11-26T00:52:44.310Z,6.23
2018-11-26T00:53:18.984Z,6.29
2018-11-26T00:53:53.588Z,6.27
2018-11-26T00:54:28.230Z,6.29
2018-11-26T00:55:02.923Z,6.28
2018-11-26T00:55:37.980Z,6.27
2018-11-26T00:56:12.759Z,6.26
2018-11-26T00:56:47.479Z,6.23
2018-11-26T00:57:22.058Z,6.25
2018-11-26T00:57:56.957Z,6.29
2018-11-26T00:58:32.029Z,6.32
2018-11-26T00:59:06.737Z,6.34
2018-11-26T00:59:41.640Z,6.28
2018-11-26T01:00:16.545Z,6.28
2018-11-26T01:00:51.286Z,6.32
2018-11-26T01:01:26.271Z,6.31
2018-11-26T01:02:01.037Z,6.33
2018-11-26T01:02:36.072Z,6.32
2018-11-26T01:03:10.815Z,6.33
2018-11-26T01:03:45.393Z,6.36
2018-11-26T01:04:20.028Z,6.33
2018-11-26T01:04:55.088Z,6.29
2018-11-26T01:05:38.989Z,6.39
2018-11-26T01:06:13.668Z,6.35
2018-11-26T01:06:48.282Z,6.40
2018-11-26T01:07:22.945Z,6.37
2018-11-26T01:07:57.578Z,6.37
2018-11-26T01:08:32.189Z,6.38
2018-11-26T01:09:08.471Z,6.38
2018-11-26T01:09:43.095Z,6.35
2018-11-26T01:10:17.716Z,6.33
2018-11-26T01:10:52.690Z,6.31
2018-11-26T01:11:27.416Z,6.28
2018-11-26T01:12:01.997Z,6.31
2018-11-26T01:12:36.664Z,6.28
2018-11-26T01:13:11.807Z,6.28
2018-11-26T01:13:46.372Z,6.29
2018-11-26T01:14:20.971Z,6.26
2018-11-26T01:14:55.595Z,6.23
2018-11-26T01:15:30.375Z,6.24
2018-11-26T01:16:05.736Z,6.25
2018-11-26T01:16:40.375Z,6.23
2018-11-26T01:17:14.986Z,6.24
2018-11-26T01:17:49.575Z,6.23
2018-11-26T01:18:24.257Z,6.21
2018-11-26T01:18:58.901Z,6.22
2018-11-26T01:19:33.515Z,6.25
2018-11-26T01:20:08.531Z,6.25
2018-11-26T01:20:43.208Z,6.26
2018-11-26T01:21:17.832Z,6.22
2018-11-26T01:21:52.391Z,6.27
2018-11-26T01:22:26.992Z,6.25
2018-11-26T01:23:01.823Z,6.23
2018-11-26T01:23:36.476Z,6.23
2018-11-26T01:24:11.211Z,6.30
2018-11-26T01:24:45.803Z,6.28
2018-11-26T01:25:20.485Z,6.27
2018-11-26T01:25:55.231Z,6.25
2018-11-26T01:26:29.878Z,6.22
2018-11-26T01:27:04.533Z,6.19
2018-11-26T01:27:39.127Z,6.18
2018-11-26T01:28:13.772Z,6.17
2018-11-26T01:28:48.414Z,6.17
2018-11-26T01:29:23.021Z,6.20
2018-11-26T01:29:57.691Z,6.19
2018-11-26T01:30:32.455Z,6.16
2018-11-26T01:31:07.139Z,6.19
2018-11-26T01:31:41.972Z,6.13
2018-11-26T01:32:16.563Z,6.14
2018-11-26T01:32:51.182Z,6.14
2018-11-26T01:33:26.066Z,6.10
2018-11-26T01:34:00.667Z,6.08
2018-11-26T01:34:35.380Z,6.06
2018-11-26T01:35:10.150Z,6.09
2018-11-26T01:35:44.776Z,6.07
2018-11-26T01:36:19.404Z,6.16
2018-11-26T01:36:54.148Z,6.11
2018-11-26T01:37:28.796Z,6.12
2018-11-26T01:38:03.477Z,6.10
2018-11-26T01:38:38.197Z,6.08
2018-11-26T01:39:45.469Z,6.07
2018-11-26T01:40:29.911Z,6.04
2018-11-26T01:41:04.872Z,5.97
2018-11-26T01:41:39.688Z,6.01
2018-11-26T01:42:14.348Z,6.08
2018-11-26T01:42:49.555Z,6.00
2018-11-26T01:43:24.200Z,6.00
2018-11-26T01:43:58.795Z,5.98
2018-11-26T01:44:33.472Z,5.96
2018-11-26T01:45:08.128Z,5.96
2018-11-26T01:45:42.851Z,5.90
2018-11-26T01:46:17.600Z,5.89
2018-11-26T01:46:52.238Z,5.86
2018-11-26T01:47:26.926Z,5.82
2018-11-26T01:48:01.553Z,5.88
2018-11-26T01:48:36.266Z,5.87
2018-11-26T01:49:11.246Z,5.86
2018-11-26T01:49:46.013Z,5.87
2018-11-26T01:50:21.134Z,5.86
2018-11-26T01:50:55.753Z,5.87
2018-11-26T01:51:30.439Z,5.81
2018-11-26T01:52:05.439Z,5.80
2018-11-26T01:52:40.172Z,5.85
2018-11-26T01:53:14.912Z,5.84
2018-11-26T01:53:49.560Z,5.81
2018-11-26T01:54:24.579Z,5.79
2018-11-26T01:54:59.199Z,5.83
2018-11-26T01:55:33.857Z,5.87
2018-11-26T01:56:08.664Z,5.82
2018-11-26T01:56:43.336Z,5.84
2018-11-26T01:57:17.976Z,5.86
2018-11-26T01:57:52.595Z,5.73
2018-11-26T01:58:27.266Z,5.77
2018-11-26T01:59:01.887Z,5.76
2018-11-26T01:59:36.683Z,5.67
2018-11-26T02:00:16.072Z,5.73
2018-11-26T02:00:50.694Z,5.77
2018-11-26T02:01:25.439Z,5.73
2018-11-26T02:02:00.585Z,5.71
2018-11-26T02:02:35.386Z,5.69
2018-11-26T02:03:10.079Z,5.69
2018-11-26T02:03:44.752Z,5.69
2018-11-26T02:04:19.393Z,5.67
2018-11-26T02:04:54.029Z,5.76
2018-11-26T02:05:28.669Z,5.74
2018-11-26T02:06:03.295Z,5.70
2018-11-26T02:06:38.016Z,5.65
2018-11-26T02:07:12.877Z,5.68
2018-11-26T02:07:47.537Z,5.69
2018-11-26T02:08:22.194Z,5.69
2018-11-26T02:08:57.000Z,5.72
2018-11-26T02:09:31.619Z,5.75
2018-11-26T02:10:12.072Z,5.73
2018-11-26T02:10:46.716Z,5.74
2018-11-26T02:11:21.655Z,5.75
2018-11-26T02:11:56.276Z,5.72
2018-11-26T02:12:30.913Z,5.73
2018-11-26T02:13:06.318Z,5.74
2018-11-26T02:13:41.136Z,5.71
2018-11-26T02:14:15.959Z,5.75
2018-11-26T02:14:50.623Z,5.77
2018-11-26T02:15:37.088Z,5.80
2018-11-26T02:16:12.081Z,5.82
2018-11-26T02:16:46.752Z,5.84
2018-11-26T02:17:21.433Z,5.85
2018-11-26T02:17:56.454Z,5.89
2018-11-26T02:18:31.191Z,5.86
2018-11-26T02:19:06.419Z,5.86
2018-11-26T02:19:41.437Z,5.82
2018-11-26T02:20:16.387Z,5.87
2018-11-26T02:20:50.952Z,5.94
2018-11-26T02:21:25.600Z,5.94
2018-11-26T02:22:00.289Z,5.93
2018-11-26T02:22:34.907Z,5.91
2018-11-26T02:23:09.771Z,5.88
2018-11-26T02:23:44.485Z,5.91
2018-11-26T02:24:19.567Z,5.92
2018-11-26T02:24:54.163Z,5.94
2018-11-26T02:25:28.788Z,6.00
2018-11-26T02:26:03.494Z,5.97
2018-11-26T02:26:38.151Z,5.94
2018-11-26T02:27:12.953Z,5.96
2018-11-26T02:27:47.612Z,5.99
2018-11-26T02:28:22.530Z,6.06
2018-11-26T02:28:57.173Z,6.15
2018-11-26T02:29:31.816Z,6.10
2018-11-26T02:30:07.779Z,6.06
2018-11-26T02:30:42.929Z,6.04
2018-11-26T02:31:17.565Z,6.06
2018-11-26T02:31:52.265Z,6.02
2018-11-26T02:32:26.891Z,6.08
2018-11-26T02:33:01.895Z,6.07
2018-11-26T02:33:36.499Z,6.09
2018-11-26T02:34:11.295Z,6.14
2018-11-26T02:34:45.996Z,6.14
2018-11-26T02:35:20.928Z,6.05
2018-11-26T02:35:55.550Z,6.02
2018-11-26T02:36:30.131Z,6.03
2018-11-26T02:37:04.733Z,6.10
2018-11-26T02:37:39.546Z,6.14
2018-11-26T02:38:14.604Z,6.13
2018-11-26T02:38:49.236Z,6.10
2018-11-26T02:39:23.947Z,6.13
2018-11-26T02:39:58.527Z,6.09
2018-11-26T02:40:33.840Z,6.11
2018-11-26T02:41:08.475Z,6.05
2018-11-26T02:41:43.496Z,6.08
2018-11-26T02:42:18.352Z,6.07
2018-11-26T02:42:53.350Z,6.07
2018-11-26T02:43:28.033Z,6.10
2018-11-26T02:44:03.136Z,6.04
2018-11-26T02:44:37.834Z,6.09
2018-11-26T02:45:12.476Z,6.10
2018-11-26T02:45:47.544Z,6.10
2018-11-26T02:46:22.605Z,6.11
2018-11-26T02:46:57.171Z,6.14
2018-11-26T02:47:31.963Z,6.20
2018-11-26T02:48:07.015Z,6.16
2018-11-26T02:48:41.684Z,6.13
2018-11-26T02:49:16.353Z,6.11
2018-11-26T02:49:51.424Z,6.12
2018-11-26T02:50:26.065Z,6.07
2018-11-26T02:51:00.747Z,6.12
2018-11-26T02:51:35.558Z,6.08
2018-11-26T02:52:10.182Z,6.08
2018-11-26T02:52:44.795Z,6.07
2018-11-26T02:53:19.460Z,6.06
2018-11-26T02:53:54.314Z,6.05
2018-11-26T02:54:28.903Z,6.06
2018-11-26T02:55:03.565Z,6.04
2018-11-26T02:55:38.453Z,6.06
2018-11-26T02:56:13.067Z,6.02
2018-11-26T02:56:47.662Z,6.04
2018-11-26T02:57:22.296Z,6.02
2018-11-26T02:57:56.882Z,6.06
2018-11-26T02:58:31.517Z,6.07
2018-11-26T02:59:06.682Z,6.08
2018-11-26T02:59:41.368Z,6.12
2018-11-26T03:00:16.044Z,6.13
2018-11-26T03:00:50.787Z,6.11
2018-11-26T03:01:26.417Z,6.10
2018-11-26T03:02:01.038Z,6.13
2018-11-26T03:02:35.701Z,6.19
2018-11-26T03:03:10.865Z,6.18
2018-11-26T03:03:45.489Z,6.14
2018-11-26T03:04:20.110Z,6.15
2018-11-26T03:04:54.764Z,6.14
2018-11-26T03:05:30.315Z,6.11
2018-11-26T03:06:05.468Z,6.13
2018-11-26T03:06:40.416Z,6.12
2018-11-26T03:07:15.306Z,6.13
2018-11-26T03:07:49.903Z,6.13
2018-11-26T03:08:24.544Z,6.16
2018-11-26T03:08:59.168Z,6.11
2018-11-26T03:09:33.768Z,6.12
2018-11-26T03:10:09.696Z,6.14
2018-11-26T03:10:44.312Z,6.13
2018-11-26T03:11:19.196Z,6.14
2018-11-26T03:11:53.803Z,6.16
2018-11-26T03:12:28.439Z,6.16
2018-11-26T03:13:03.188Z,6.13
2018-11-26T03:13:38.675Z,6.17
2018-11-26T03:15:16.564Z,6.17
2018-11-26T03:15:51.219Z,6.18
2018-11-26T03:16:25.891Z,6.25
2018-11-26T03:17:00.534Z,6.21
2018-11-26T03:17:35.162Z,6.17
2018-11-26T03:18:10.152Z,6.17
2018-11-26T03:18:44.872Z,6.18
2018-11-26T03:19:19.511Z,6.15
2018-11-26T03:19:54.116Z,6.18
2018-11-26T03:20:28.766Z,6.32
2018-11-26T03:21:03.467Z,6.32
2018-11-26T03:21:38.129Z,6.24
2018-11-26T03:22:12.747Z,6.26
2018-11-26T03:22:47.329Z,6.24
2018-11-26T03:23:21.961Z,6.25
2018-11-26T03:23:56.576Z,6.27
2018-11-26T03:24:31.208Z,6.22
2018-11-26T03:25:07.327Z,6.18
2018-11-26T03:25:42.096Z,6.19
2018-11-26T03:26:16.748Z,6.22
2018-11-26T03:26:51.346Z,6.23
2018-11-26T03:27:26.031Z,6.22
2018-11-26T03:28:00.659Z,6.27
2018-11-26T03:28:35.284Z,6.30
2018-11-26T03:29:09.993Z,6.26
2018-11-26T03:29:44.660Z,6.22
2018-11-26T03:30:20.654Z,6.15
2018-11-26T03:30:55.265Z,6.21
2018-11-26T03:31:29.924Z,6.18
2018-11-26T03:32:04.681Z,6.21
2018-11-26T03:32:39.573Z,6.21
2018-11-26T03:33:14.424Z,6.25
2018-11-26T03:33:49.109Z,6.21
2018-11-26T03:34:23.861Z,6.16
2018-11-26T03:34:58.494Z,6.15
2018-11-26T03:35:33.206Z,6.14
2018-11-26T03:36:08.215Z,6.12
2018-11-26T03:36:42.928Z,6.15
2018-11-26T03:37:17.530Z,6.13
2018-11-26T03:37:52.172Z,6.12
2018-11-26T03:39:00.680Z,6.14
2018-11-26T03:39:35.470Z,6.17
2018-11-26T03:40:11.580Z,6.19
2018-11-26T03:40:46.191Z,6.17
2018-11-26T03:41:21.441Z,6.24
2018-11-26T03:41:56.042Z,6.22
2018-11-26T03:42:30.651Z,6.25
2018-11-26T03:43:05.425Z,6.22
2018-11-26T03:43:40.099Z,6.22
2018-11-26T03:44:14.822Z,6.22
2018-11-26T03:44:49.522Z,6.19
2018-11-26T03:45:24.536Z,6.21
2018-11-26T03:45:59.144Z,6.21
2018-11-26T03:46:33.779Z,6.18
2018-11-26T03:47:08.489Z,6.15
2018-11-26T03:47:43.555Z,6.17
2018-11-26T03:48:18.256Z,6.17
2018-11-26T03:48:52.915Z,6.21
2018-11-26T03:49:27.534Z,6.15
2018-11-26T03:50:02.233Z,6.16
2018-11-26T03:50:36.884Z,6.23
2018-11-26T03:51:11.750Z,6.27
2018-11-26T03:51:46.421Z,6.22
2018-11-26T03:52:21.128Z,6.24
2018-11-26T03:52:55.769Z,6.23
2018-11-26T03:53:30.428Z,6.24
2018-11-26T03:54:05.675Z,6.29
2018-11-26T03:54:40.403Z,6.32
2018-11-26T03:55:15.176Z,6.30
2018-11-26T03:55:49.775Z,6.26
2018-11-26T03:56:24.433Z,6.24
2018-11-26T03:56:59.146Z,6.20
2018-11-26T03:57:33.794Z,6.27
2018-11-26T03:58:08.483Z,6.22
2018-11-26T03:58:43.494Z,6.19
2018-11-26T03:59:18.140Z,6.14
2018-11-26T03:59:52.840Z,6.20
2018-11-26T04:00:27.459Z,6.17
2018-11-26T04:01:02.166Z,6.16
2018-11-26T04:01:36.881Z,6.15
2018-11-26T04:02:11.637Z,6.14
2018-11-26T04:02:46.465Z,6.10
2018-11-26T04:03:21.256Z,6.11
2018-11-26T04:03:55.935Z,6.16
2018-11-26T04:04:30.552Z,6.16
2018-11-26T04:05:05.630Z,6.20
2018-11-26T04:05:40.310Z,6.18
2018-11-26T04:06:15.085Z,6.14
2018-11-26T04:06:49.793Z,6.13
2018-11-26T04:07:24.472Z,6.13
2018-11-26T04:07:59.106Z,6.12
2018-11-26T04:08:33.736Z,6.09
2018-11-26T04:09:09.159Z,6.14
2018-11-26T04:09:43.774Z,6.12
2018-11-26T04:10:18.468Z,6.13
2018-11-26T04:10:53.791Z,6.15
2018-11-26T04:11:28.740Z,6.20
2018-11-26T04:12:03.861Z,6.22
2018-11-26T04:12:38.489Z,6.20
2018-11-26T04:13:13.333Z,6.20
2018-11-26T04:13:48.238Z,6.37
2018-11-26T04:14:22.947Z,6.29
2018-11-26T04:14:57.524Z,6.25
2018-11-26T04:15:32.184Z,6.21
2018-11-26T04:16:06.992Z,6.17
2018-11-26T04:16:41.652Z,6.14
2018-11-26T04:17:16.807Z,6.12
2018-11-26T04:17:51.673Z,6.15
2018-11-26T04:18:26.657Z,6.11
2018-11-26T04:19:01.352Z,6.12
2018-11-26T04:19:36.116Z,6.12
2018-11-26T04:20:10.976Z,6.10
2018-11-26T04:20:45.673Z,6.11
2018-11-26T04:21:20.409Z,6.13
2018-11-26T04:21:55.150Z,6.13
2018-11-26T04:22:30.071Z,6.11
2018-11-26T04:23:04.759Z,6.13
2018-11-26T04:23:39.735Z,6.12
2018-11-26T04:24:14.398Z,6.13
2018-11-26T04:24:49.531Z,6.10
2018-11-26T04:25:24.388Z,6.14
2018-11-26T04:25:59.291Z,6.14
2018-11-26T04:26:34.096Z,6.11
2018-11-26T04:27:08.951Z,6.23
2018-11-26T04:27:43.759Z,6.18
2018-11-26T04:28:18.560Z,6.15
2018-11-26T04:28:53.227Z,6.29
2018-11-26T04:29:27.913Z,6.25
2018-11-26T04:30:02.665Z,6.22
2018-11-26T04:30:37.404Z,6.22
2018-11-26T04:31:12.043Z,6.17
2018-11-26T04:31:46.731Z,6.18
2018-11-26T04:32:21.607Z,6.18
2018-11-26T04:32:56.348Z,6.21
2018-11-26T04:33:31.074Z,6.24
2018-11-26T04:34:06.039Z,6.28
2018-11-26T04:34:40.705Z,6.28
2018-11-26T04:35:15.389Z,6.27
2018-11-26T04:35:50.412Z,6.27
2018-11-26T04:36:25.117Z,6.24
2018-11-26T04:36:59.755Z,6.27
2018-11-26T04:37:35.061Z,6.25
2018-11-26T04:38:09.848Z,6.30
2018-11-26T04:38:44.551Z,6.26
2018-11-26T04:39:19.293Z,6.26
2018-11-26T04:39:53.934Z,6.26
2018-11-26T04:40:28.564Z,6.27
2018-11-26T04:41:03.239Z,6.25
2018-11-26T04:41:37.948Z,6.22
2018-11-26T04:42:12.720Z,6.22
2018-11-26T04:42:47.401Z,6.22
2018-11-26T04:43:22.021Z,6.21
2018-11-26T04:43:56.707Z,6.21
2018-11-26T04:44:31.425Z,6.22
2018-11-26T04:45:07.971Z,6.16
2018-11-26T04:45:42.651Z,6.13
2018-11-26T04:46:17.476Z,6.16
2018-11-26T04:46:53.892Z,6.15
2018-11-26T04:47:28.533Z,6.14
2018-11-26T04:48:03.224Z,6.13
2018-11-26T04:48:37.875Z,6.17
2018-11-26T04:49:12.586Z,6.16
2018-11-26T04:49:47.299Z,6.15
2018-11-26T04:50:22.003Z,6.13
2018-11-26T04:50:56.762Z,6.13
2018-11-26T04:51:31.422Z,6.18
2018-11-26T04:52:06.831Z,6.13
2018-11-26T04:52:41.692Z,6.13
2018-11-26T04:53:16.338Z,6.13
2018-11-26T04:53:51.058Z,6.10
2018-11-26T04:54:25.785Z,6.19
2018-11-26T04:55:00.446Z,6.15
2018-11-26T04:55:35.099Z,6.15
2018-11-26T04:56:09.753Z,6.12
2018-11-26T04:56:44.484Z,6.09
2018-11-26T04:57:19.302Z,6.13
2018-11-26T04:57:54.135Z,6.09
2018-11-26T04:58:28.779Z,6.12
2018-11-26T04:59:03.490Z,6.08
2018-11-26T04:59:38.218Z,6.05
2018-11-26T05:00:15.218Z,6.06
2018-11-26T05:00:50.209Z,6.05
2018-11-26T05:01:25.020Z,6.11
2018-11-26T05:01:59.820Z,6.09
2018-11-26T05:02:34.484Z,6.06
2018-11-26T05:03:09.206Z,6.09
2018-11-26T05:03:44.285Z,6.07
2018-11-26T05:04:19.150Z,6.07
2018-11-26T05:04:53.834Z,6.07
2018-11-26T05:05:28.561Z,6.02
2018-11-26T05:06:03.263Z,6.02
2018-11-26T05:06:37.922Z,6.01
2018-11-26T05:07:12.705Z,6.05
2018-11-26T05:07:47.498Z,6.01
2018-11-26T05:08:22.256Z,6.00
2018-11-26T05:08:57.036Z,6.13
2018-11-26T05:09:31.749Z,6.10
2018-11-26T05:10:08.417Z,6.07
2018-11-26T05:10:43.056Z,6.04
2018-11-26T05:11:18.172Z,6.02
2018-11-26T05:11:52.897Z,6.03
2018-11-26T05:12:27.719Z,6.01
2018-11-26T05:13:02.387Z,6.01
2018-11-26T05:13:37.044Z,6.18
2018-11-26T05:14:11.725Z,6.13
2018-11-26T05:14:46.749Z,6.18
2018-11-26T05:15:21.483Z,6.14
2018-11-26T05:15:56.148Z,6.10
2018-11-26T05:16:30.816Z,6.02
2018-11-26T05:17:05.700Z,6.27
2018-11-26T05:17:40.410Z,6.17
2018-11-26T05:18:15.170Z,6.10
2018-11-26T05:18:49.928Z,6.05
2018-11-26T05:19:24.602Z,6.07
2018-11-26T05:19:59.320Z,6.05
2018-11-26T05:20:33.987Z,6.03
2018-11-26T05:21:08.685Z,6.02
2018-11-26T05:21:43.412Z,6.00
2018-11-26T05:22:18.510Z,6.00
2018-11-26T05:22:53.241Z,5.99
2018-11-26T05:23:27.977Z,5.98
2018-11-26T05:24:02.815Z,5.96
2018-11-26T05:24:37.450Z,6.05
2018-11-26T05:25:12.971Z,6.00
2018-11-26T05:25:47.834Z,5.97
2018-11-26T05:26:22.576Z,5.98
2018-11-26T05:26:57.269Z,6.00
2018-11-26T05:27:32.089Z,6.07
2018-11-26T05:28:07.164Z,6.01
2018-11-26T05:28:41.831Z,6.06
2018-11-26T05:29:16.525Z,6.10
2018-11-26T05:29:51.239Z,6.13
2018-11-26T05:30:26.097Z,6.07
2018-11-26T05:31:00.845Z,6.05
2018-11-26T05:31:35.694Z,6.20
2018-11-26T05:32:10.342Z,6.15
2018-11-26T05:32:45.236Z,6.13
2018-11-26T05:33:19.990Z,6.10
2018-11-26T05:33:54.725Z,6.03
2018-11-26T05:34:29.356Z,6.01
2018-11-26T05:35:04.761Z,6.05
2018-11-26T05:35:39.577Z,6.02
2018-11-26T05:36:14.345Z,5.99
2018-11-26T05:36:49.152Z,5.99
2018-11-26T05:37:23.819Z,5.98
2018-11-26T05:37:58.459Z,5.97
2018-11-26T05:38:33.089Z,5.97
2018-11-26T05:39:09.160Z,6.00
2018-11-26T05:39:43.851Z,6.06
2018-11-26T05:40:18.718Z,6.01
2018-11-26T05:40:53.580Z,5.98
2018-11-26T05:41:28.248Z,5.95
2018-11-26T05:42:02.892Z,5.94
2018-11-26T05:42:37.644Z,5.94
2018-11-26T05:43:12.304Z,5.97
2018-11-26T05:43:47.069Z,5.97
2018-11-26T05:44:21.871Z,5.97
2018-11-26T05:44:56.523Z,5.97
2018-11-26T05:45:31.652Z,6.00
2018-11-26T05:46:06.427Z,6.14
2018-11-26T05:46:41.111Z,6.04
2018-11-26T05:47:15.845Z,6.08
2018-11-26T05:47:50.568Z,6.12
2018-11-26T05:48:25.268Z,6.09
2018-11-26T05:48:59.967Z,6.05
2018-11-26T05:49:34.633Z,6.10
2018-11-26T05:50:10.676Z,6.04
2018-11-26T05:50:45.686Z,6.05
2018-11-26T05:51:20.613Z,6.03
2018-11-26T05:51:55.301Z,5.99
2018-11-26T05:52:29.986Z,6.00
2018-11-26T05:53:05.042Z,5.96
2018-11-26T05:53:39.759Z,5.94
2018-11-26T05:54:14.526Z,6.01
2018-11-26T05:54:49.114Z,6.12
2018-11-26T05:55:23.809Z,6.25
2018-11-26T05:55:58.444Z,6.33
2018-11-26T05:56:33.131Z,6.21
2018-11-26T05:57:07.730Z,6.15
2018-11-26T05:57:42.458Z,6.12
2018-11-26T05:58:17.333Z,6.08
2018-11-26T05:58:52.018Z,6.07
2018-11-26T05:59:26.687Z,6.04
2018-11-26T06:00:01.375Z,6.03
2018-11-26T06:00:36.595Z,6.01
2018-11-26T06:01:11.273Z,6.12
2018-11-26T06:01:46.061Z,6.15
2018-11-26T06:02:20.790Z,6.09
2018-11-26T06:02:55.443Z,6.06
2018-11-26T06:03:30.150Z,6.03
2018-11-26T06:04:04.923Z,6.02
2018-11-26T06:04:39.698Z,5.99
2018-11-26T06:05:14.865Z,5.98
2018-11-26T06:05:49.555Z,5.97
2018-11-26T06:06:24.274Z,6.00
2018-11-26T06:06:59.018Z,6.04
2018-11-26T06:07:33.686Z,5.99
2018-11-26T06:08:08.370Z,6.00
2018-11-26T06:08:43.012Z,5.98
2018-11-26T06:09:18.033Z,5.99
2018-11-26T06:09:52.639Z,5.95
2018-11-26T06:10:27.306Z,6.09
2018-11-26T06:11:01.991Z,6.11
2018-11-26T06:11:36.734Z,6.03
2018-11-26T06:12:11.417Z,6.03
2018-11-26T06:12:46.215Z,6.03
2018-11-26T06:13:20.936Z,5.99
2018-11-26T06:13:55.708Z,6.01
2018-11-26T06:14:30.556Z,5.99
2018-11-26T06:15:06.901Z,6.01
2018-11-26T06:15:41.540Z,5.96
2018-11-26T06:16:16.218Z,5.93
2018-11-26T06:16:53.633Z,5.98
2018-11-26T06:17:25.621Z,5.99
2018-11-26T06:18:00.261Z,6.02
2018-11-26T06:18:34.893Z,6.01
2018-11-26T06:19:09.497Z,5.98
2018-11-26T06:19:44.387Z,6.01
2018-11-26T06:20:19.734Z,6.03
2018-11-26T06:20:53.754Z,6.10
2018-11-26T06:21:28.438Z,6.02
2018-11-26T06:22:03.186Z,6.02
2018-11-26T06:22:37.866Z,5.96
2018-11-26T06:23:12.600Z,5.97
2018-11-26T06:23:47.298Z,5.88
2018-11-26T06:24:21.899Z,5.88
2018-11-26T06:24:56.633Z,5.86
2018-11-26T06:25:32.415Z,5.95
2018-11-26T06:26:07.139Z,5.89
2018-11-26T06:26:41.849Z,5.88
2018-11-26T06:27:16.560Z,5.87
2018-11-26T06:27:51.229Z,5.83
2018-11-26T06:28:25.850Z,5.78
2018-11-26T06:29:00.441Z,5.75
2018-11-26T06:29:35.219Z,5.75
2018-11-26T06:30:12.036Z,5.72
2018-11-26T06:30:46.823Z,5.76
2018-11-26T06:31:21.456Z,5.74
2018-11-26T06:31:56.182Z,5.76
2018-11-26T06:32:30.935Z,5.72
2018-11-26T06:33:06.270Z,5.72
2018-11-26T06:33:40.983Z,5.63
2018-11-26T06:34:15.668Z,5.78
2018-11-26T06:34:50.376Z,5.78
2018-11-26T06:35:25.141Z,5.81
2018-11-26T06:35:59.816Z,5.74
2018-11-26T06:36:34.843Z,5.70
2018-11-26T06:37:09.445Z,5.75
2018-11-26T06:37:44.244Z,5.77
2018-11-26T06:38:19.031Z,5.73
2018-11-26T06:38:53.713Z,5.73
2018-11-26T06:39:28.314Z,5.72
2018-11-26T06:40:03.069Z,5.70
2018-11-26T06:40:37.759Z,5.69
2018-11-26T06:41:12.934Z,5.65
2018-11-26T06:41:47.684Z,5.67
2018-11-26T06:42:22.372Z,5.69
2018-11-26T06:42:57.364Z,5.73
2018-11-26T06:43:31.966Z,5.73
2018-11-26T06:44:07.453Z,5.74
2018-11-26T06:44:42.116Z,5.69
2018-11-26T06:45:19.983Z,5.78
2018-11-26T06:45:54.624Z,5.77
2018-11-26T06:46:29.342Z,5.73
2018-11-26T06:47:04.094Z,5.70
2018-11-26T06:47:38.851Z,5.70
2018-11-26T06:48:13.530Z,5.76
2018-11-26T06:48:48.193Z,5.76
2018-11-26T06:49:22.825Z,5.77
2018-11-26T06:49:57.437Z,5.74
2018-11-26T06:50:32.073Z,5.63
2018-11-26T06:51:07.023Z,5.76
2018-11-26T06:51:41.715Z,5.82
2018-11-26T06:52:16.514Z,5.92
2018-11-26T06:52:51.615Z,5.91
2018-11-26T06:53:26.262Z,5.85
2018-11-26T06:54:01.085Z,5.87
2018-11-26T06:54:35.687Z,5.87
2018-11-26T06:55:14.275Z,5.88
2018-11-26T06:55:49.048Z,5.88
2018-11-26T06:56:23.729Z,5.84
2018-11-26T06:56:58.376Z,5.85
2018-11-26T06:57:33.021Z,5.78
2018-11-26T06:58:08.037Z,5.87
2018-11-26T06:58:42.651Z,5.85
2018-11-26T06:59:17.494Z,5.80
2018-11-26T06:59:52.185Z,5.77
2018-11-26T07:00:26.831Z,5.74
2018-11-26T07:01:01.509Z,5.71
2018-11-26T07:01:36.127Z,5.76
2018-11-26T07:02:10.959Z,5.79
2018-11-26T07:02:46.371Z,5.74
2018-11-26T07:03:21.434Z,5.70
2018-11-26T07:03:56.168Z,5.66
2018-11-26T07:04:30.792Z,5.70
2018-11-26T07:05:08.553Z,5.67
2018-11-26T07:05:43.441Z,5.73
2018-11-26T07:06:18.243Z,5.84
2018-11-26T07:06:52.899Z,5.79
2018-11-26T07:07:27.544Z,5.77
2018-11-26T07:08:02.229Z,5.85
2018-11-26T07:08:37.264Z,5.85
2018-11-26T07:09:18.520Z,5.81
2018-11-26T07:09:53.199Z,5.87
2018-11-26T07:10:28.147Z,5.80
2018-11-26T07:11:02.780Z,5.78
2018-11-26T07:11:37.825Z,5.76
2018-11-26T07:12:12.418Z,5.79
2018-11-26T07:12:47.069Z,5.83
2018-11-26T07:13:21.731Z,5.79
2018-11-26T07:13:56.439Z,5.77
2018-11-26T07:14:31.059Z,5.73
2018-11-26T07:15:08.023Z,5.71
2018-11-26T07:15:42.676Z,5.72
2018-11-26T07:16:17.326Z,5.70
2018-11-26T07:16:52.117Z,5.72
2018-11-26T07:17:26.842Z,5.75
2018-11-26T07:18:01.480Z,5.73
2018-11-26T07:18:36.755Z,5.80
2018-11-26T07:19:11.328Z,5.79
2018-11-26T07:19:46.185Z,5.79
2018-11-26T07:20:22.298Z,5.79
2018-11-26T07:20:56.909Z,5.81
2018-11-26T07:21:31.550Z,5.84
2018-11-26T07:22:06.655Z,5.85
2018-11-26T07:22:41.282Z,5.82
2018-11-26T07:23:15.950Z,5.81
2018-11-26T07:23:51.083Z,5.77
2018-11-26T07:24:25.786Z,5.76
2018-11-26T07:25:00.528Z,5.75
2018-11-26T07:25:35.111Z,5.83
2018-11-26T07:26:09.756Z,5.78
2018-11-26T07:26:44.415Z,5.78
2018-11-26T07:27:19.218Z,5.87
2018-11-26T07:27:55.337Z,5.83
2018-11-26T07:28:30.095Z,5.80
2018-11-26T07:29:05.388Z,5.80
2018-11-26T07:29:40.344Z,5.85
2018-11-26T07:30:19.330Z,5.92
2018-11-26T07:30:53.946Z,5.91
2018-11-26T07:31:28.609Z,5.87
2018-11-26T07:32:03.536Z,5.80
2018-11-26T07:32:38.473Z,5.83
2018-11-26T07:33:13.071Z,5.84
2018-11-26T07:33:47.694Z,5.85
2018-11-26T07:34:22.296Z,5.83
2018-11-26T07:34:56.958Z,5.82
2018-11-26T07:35:32.524Z,5.84
2018-11-26T07:36:11.169Z,5.80
2018-11-26T07:36:41.944Z,5.81
2018-11-26T07:37:16.696Z,5.84
2018-11-26T07:37:51.292Z,5.83
2018-11-26T07:38:25.872Z,5.80
2018-11-26T07:39:00.521Z,5.78
2018-11-26T07:39:35.154Z,5.86
2018-11-26T07:40:15.174Z,5.87
2018-11-26T07:40:49.833Z,5.96
2018-11-26T07:41:24.504Z,5.97
2018-11-26T07:41:59.164Z,5.98
2018-11-26T07:42:34.112Z,5.97
2018-11-26T07:43:11.911Z,5.98
2018-11-26T07:43:46.511Z,5.95
2018-11-26T07:44:21.149Z,5.92
2018-11-26T07:44:55.839Z,5.90
2018-11-26T07:45:30.459Z,5.86
2018-11-26T07:46:05.865Z,5.93
2018-11-26T07:46:40.500Z,5.93
2018-11-26T07:47:15.136Z,6.03